createdAt,value
2018-03-17T00:00:18.054Z,100806
2018-03-17T00:02:46.434Z,100812
2018-03-17T00:05:14.867Z,100813
2018-03-17T00:07:43.148Z,100817
2018-03-17T00:10:12.366Z,100823
2018-03-17T00:12:40.724Z,100818
2018-03-17T00:15:09.040Z,100813
2018-03-17T00:17:37.377Z,100819
2018-03-17T00:20:06.548Z,100820
2018-03-17T00:22:43.003Z,100828
2018-03-17T00:25:11.197Z,100821
2018-03-17T00:27:39.431Z,100820
2018-03-17T00:30:07.689Z,100822
2018-03-17T00:32:35.871Z,100818
2018-03-17T00:35:04.466Z,100819
2018-03-17T00:37:32.717Z,100827
2018-03-17T00:40:01.075Z,100818
2018-03-17T00:42:29.311Z,100830
2018-03-17T00:44:57.554Z,100839
2018-03-17T00:47:25.748Z,100825
2018-03-17T00:49:53.943Z,100832
2018-03-17T00:52:22.251Z,100822
2018-03-17T00:54:50.535Z,100816
2018-03-17T00:57:18.752Z,100809
2018-03-17T00:59:47.091Z,100825
2018-03-17T01:02:15.326Z,100820
2018-03-17T01:04:43.762Z,100829
2018-03-17T01:07:12.025Z,100812
2018-03-17T01:09:40.386Z,100804
2018-03-17T01:12:08.619Z,100806
2018-03-17T01:14:36.881Z,100808
2018-03-17T01:17:05.488Z,100798
2018-03-17T01:19:35.590Z,100810
2018-03-17T01:22:03.891Z,100800
2018-03-17T01:24:32.122Z,100814
2018-03-17T01:27:00.368Z,100798
2018-03-17T01:29:28.599Z,100821
2018-03-17T01:31:57.015Z,100802
2018-03-17T01:34:25.319Z,100796
2018-03-17T01:36:53.668Z,100794
2018-03-17T01:39:21.947Z,100804
2018-03-17T01:41:51.058Z,100810
2018-03-17T01:44:19.275Z,100795
2018-03-17T01:46:47.509Z,100803
2018-03-17T01:49:15.753Z,100798
2018-03-17T01:51:43.924Z,100795
2018-03-17T01:54:29.807Z,100782
2018-03-17T01:56:58.090Z,100788
2018-03-17T01:59:27.162Z,100783
2018-03-17T02:01:55.426Z,100787
2018-03-17T02:04:23.676Z,100785
2018-03-17T02:06:51.918Z,100787
2018-03-17T02:09:20.143Z,100781
2018-03-17T02:11:48.514Z,100778
2018-03-17T02:14:16.787Z,100767
2018-03-17T02:16:45.225Z,100768
2018-03-17T02:19:13.474Z,100767
2018-03-17T02:21:41.735Z,100764
2018-03-17T02:24:10.046Z,100762
2018-03-17T02:26:38.269Z,100761
2018-03-17T02:29:06.512Z,100760
2018-03-17T02:31:34.760Z,100760
2018-03-17T02:34:03.005Z,100765
2018-03-17T02:36:31.255Z,100766
2018-03-17T02:38:59.513Z,100765
2018-03-17T02:41:27.719Z,100758
2018-03-17T02:43:55.950Z,100759
2018-03-17T02:46:24.160Z,100743
2018-03-17T02:48:52.445Z,100752
2018-03-17T02:51:20.668Z,100747
2018-03-17T02:53:49.671Z,100746
2018-03-17T02:56:18.036Z,100734
2018-03-17T02:58:46.238Z,100745
2018-03-17T03:01:14.502Z,100742
2018-03-17T03:03:42.794Z,100748
2018-03-17T03:06:10.998Z,100742
2018-03-17T03:08:39.268Z,100743
2018-03-17T03:11:07.488Z,100738
2018-03-17T03:13:36.566Z,100733
2018-03-17T03:16:04.754Z,100734
2018-03-17T03:18:32.972Z,100747
2018-03-17T03:21:01.287Z,100755
2018-03-17T03:23:29.536Z,100748
2018-03-17T03:25:58.528Z,100754
2018-03-17T03:28:27.524Z,100755
2018-03-17T03:30:56.516Z,100763
2018-03-17T03:33:24.737Z,100770
2018-03-17T03:35:52.973Z,100772
2018-03-17T03:38:21.288Z,100772
2018-03-17T03:40:49.699Z,100744
2018-03-17T03:43:17.954Z,100775
2018-03-17T03:45:46.245Z,100780
2018-03-17T03:48:14.475Z,100779
2018-03-17T03:50:42.728Z,100767
2018-03-17T03:53:10.957Z,100777
2018-03-17T03:55:39.207Z,100776
2018-03-17T03:58:07.402Z,100792
2018-03-17T04:00:35.734Z,100776
2018-03-17T04:03:03.954Z,100779
2018-03-17T04:05:32.296Z,100778
2018-03-17T04:08:00.674Z,100774
2018-03-17T04:10:29.027Z,100795
2018-03-17T04:12:57.430Z,100782
2018-03-17T04:15:27.291Z,100775
2018-03-17T04:17:56.323Z,100776
2018-03-17T04:20:24.697Z,100780
2018-03-17T04:22:53.688Z,100780
2018-03-17T04:25:22.859Z,100781
2018-03-17T04:27:51.516Z,100783
2018-03-17T04:30:19.901Z,100793
2018-03-17T04:32:48.327Z,100789
2018-03-17T04:35:17.193Z,100788
2018-03-17T04:37:45.593Z,100795
2018-03-17T05:24:33.688Z,100817
2018-03-17T05:27:01.999Z,100811
2018-03-17T05:29:30.367Z,100811
2018-03-17T05:51:00.397Z,100830
2018-03-17T05:53:28.797Z,100854
2018-03-17T05:55:57.939Z,100836
2018-03-17T05:58:26.254Z,100844
2018-03-17T06:00:54.583Z,100839
2018-03-17T06:03:22.868Z,100853
2018-03-17T06:05:51.139Z,100856
2018-03-17T06:08:20.146Z,100858
2018-03-17T06:10:48.489Z,100878
2018-03-17T06:13:16.761Z,100844
2018-03-17T06:15:45.043Z,100847
2018-03-17T06:18:13.947Z,100846
2018-03-17T06:20:42.301Z,100832
2018-03-17T06:23:10.635Z,100845
2018-03-17T06:25:38.950Z,100862
2018-03-17T06:28:07.218Z,100854
2018-03-17T06:55:55.583Z,100899
2018-03-17T06:58:23.911Z,100877
2018-03-17T07:04:03.288Z,100874
2018-03-17T07:06:31.696Z,100892
2018-03-17T07:09:00.833Z,100892
2018-03-17T07:14:40.468Z,100883
2018-03-17T07:17:08.813Z,100872
2018-03-17T07:19:37.899Z,100874
2018-03-17T07:34:26.100Z,100862
2018-03-17T07:36:54.398Z,100849
2018-03-17T07:39:22.687Z,100848
2018-03-17T07:41:51.035Z,100872
2018-03-17T07:44:19.299Z,100869
2018-03-17T07:46:47.682Z,100856
2018-03-17T07:49:15.988Z,100864
2018-03-17T07:54:55.738Z,100855
2018-03-17T07:57:24.032Z,100844
2018-03-17T08:00:23.828Z,100854
2018-03-17T08:02:52.274Z,100847
2018-03-17T08:05:20.585Z,100828
2018-03-17T08:07:48.928Z,100838
2018-03-17T08:22:58.053Z,100837
2018-03-17T08:25:26.969Z,100819
2018-03-17T08:27:56.039Z,100829
2018-03-17T08:30:24.672Z,100836
2018-03-17T08:45:35.940Z,100820
2018-03-17T08:48:04.288Z,100821
2018-03-17T08:50:32.653Z,100811
2018-03-17T08:53:01.189Z,100798
2018-03-17T08:55:29.505Z,100814
2018-03-17T08:57:58.052Z,100827
2018-03-17T09:03:36.979Z,100813
2018-03-17T09:06:05.437Z,100815
2018-03-17T09:08:34.527Z,100810
2018-03-17T09:11:29.521Z,100801
2018-03-17T09:24:30.023Z,100791
2018-03-17T09:34:57.217Z,100825
2018-03-17T09:42:05.764Z,100783
2018-03-17T09:44:34.820Z,100814
2018-03-17T09:47:03.179Z,100812
2018-03-17T09:49:31.657Z,100809
2018-03-17T09:52:00.117Z,100819
2018-03-17T09:54:29.501Z,100809
2018-03-17T09:56:58.838Z,100806
2018-03-17T09:59:27.165Z,100817
2018-03-17T10:01:55.576Z,100779
2018-03-17T10:04:24.666Z,100802
2018-03-17T10:13:38.123Z,100784
2018-03-17T10:16:22.244Z,100802
2018-03-17T10:19:11.210Z,100798
2018-03-17T10:34:18.159Z,100800
2018-03-17T10:36:46.790Z,100787
2018-03-17T10:39:16.118Z,100795
2018-03-17T10:41:44.422Z,100820
2018-03-17T10:44:12.737Z,100798
2018-03-17T10:46:41.994Z,100802
2018-03-17T10:49:10.564Z,100805
2018-03-17T10:54:50.048Z,100778
2018-03-17T10:57:19.376Z,100781
2018-03-17T10:59:49.103Z,100798
2018-03-17T11:02:17.847Z,100798
2018-03-17T11:04:46.247Z,100793
2018-03-17T11:07:15.245Z,100786
2018-03-17T11:09:44.231Z,100769
2018-03-17T11:12:12.460Z,100765
2018-03-17T11:14:40.831Z,100774
2018-03-17T11:17:09.028Z,100776
2018-03-17T11:19:37.277Z,100775
2018-03-17T11:22:05.532Z,100768
2018-03-17T11:24:33.802Z,100771
2018-03-17T11:27:02.117Z,100748
2018-03-17T11:29:30.338Z,100785
2018-03-17T11:31:58.506Z,100788
2018-03-17T11:34:26.772Z,100766
2018-03-17T11:36:55.024Z,100777
2018-03-17T11:39:24.619Z,100773
2018-03-17T11:41:52.972Z,100768
2018-03-17T11:44:21.398Z,100775
2018-03-17T11:46:49.681Z,100758
2018-03-17T11:49:18.626Z,100740
2018-03-17T11:51:46.897Z,100745
2018-03-17T11:54:15.162Z,100765
2018-03-17T11:56:43.627Z,100751
2018-03-17T11:59:11.821Z,100750
2018-03-17T12:01:40.007Z,100759
2018-03-17T12:04:08.195Z,100749
2018-03-17T12:06:37.512Z,100740
2018-03-17T12:09:05.800Z,100748
2018-03-17T12:11:34.758Z,100741
2018-03-17T12:14:03.010Z,100734
2018-03-17T12:16:31.211Z,100727
2018-03-17T12:18:59.585Z,100753
2018-03-17T12:21:27.849Z,100732
2018-03-17T12:23:56.058Z,100734
2018-03-17T12:26:25.116Z,100743
2018-03-17T12:28:53.295Z,100725
2018-03-17T12:31:21.540Z,100750
2018-03-17T12:33:49.742Z,100741
2018-03-17T12:36:18.075Z,100734
2018-03-17T12:38:46.273Z,100744
2018-03-17T12:41:14.520Z,100728
2018-03-17T12:43:42.725Z,100727
2018-03-17T12:46:10.954Z,100749
2018-03-17T12:48:39.199Z,100735
2018-03-17T12:51:08.325Z,100725
2018-03-17T12:53:37.294Z,100733
2018-03-17T12:56:05.472Z,100728
2018-03-17T12:58:33.800Z,100727
2018-03-17T13:01:02.044Z,100744
2018-03-17T13:03:31.022Z,100728
2018-03-17T13:05:59.195Z,100719
2018-03-17T13:08:28.227Z,100717
2018-03-17T13:10:56.441Z,100736
2018-03-17T13:13:25.466Z,100720
2018-03-17T13:15:54.433Z,100709
2018-03-17T13:18:22.711Z,100713
2018-03-17T13:20:50.959Z,100711
2018-03-17T13:23:19.208Z,100713
2018-03-17T13:25:47.477Z,100724
2018-03-17T13:28:27.454Z,100733
2018-03-17T13:30:55.671Z,100721
2018-03-17T13:33:24.604Z,100683
2018-03-17T13:36:10.702Z,100710
2018-03-17T13:38:38.903Z,100710
2018-03-17T13:41:07.083Z,100721
2018-03-17T13:43:35.319Z,100715
2018-03-17T13:46:03.503Z,100715
2018-03-17T13:48:31.772Z,100709
2018-03-17T13:50:59.971Z,100692
2018-03-17T13:53:28.395Z,100716
2018-03-17T13:55:56.620Z,100713
2018-03-17T13:58:24.796Z,100712
2018-03-17T14:00:52.998Z,100718
2018-03-17T14:03:22.000Z,100719
2018-03-17T14:05:50.237Z,100707
2018-03-17T14:08:18.439Z,100722
2018-03-17T14:10:46.840Z,100708
2018-03-17T14:13:15.092Z,100728
2018-03-17T14:15:43.381Z,100732
2018-03-17T14:18:11.613Z,100730
2018-03-17T14:20:40.128Z,100728
2018-03-17T14:23:08.498Z,100735
2018-03-17T14:25:37.457Z,100725
2018-03-17T14:28:05.695Z,100735
2018-03-17T14:30:33.860Z,100730
2018-03-17T14:33:02.127Z,100721
2018-03-17T14:35:31.238Z,100718
2018-03-17T14:37:59.520Z,100720
2018-03-17T14:40:27.815Z,100731
2018-03-17T14:42:56.008Z,100717
2018-03-17T14:45:24.222Z,100719
2018-03-17T14:47:53.169Z,100716
2018-03-17T14:50:21.356Z,100716
2018-03-17T14:52:49.625Z,100715
2018-03-17T14:55:17.814Z,100726
2018-03-17T14:57:46.062Z,100746
2018-03-17T15:00:14.239Z,100746
2018-03-17T15:02:43.330Z,100723
2018-03-17T15:05:11.532Z,100718
2018-03-17T15:07:39.850Z,100716
2018-03-17T15:10:08.117Z,100720
2018-03-17T15:12:36.304Z,100733
2018-03-17T15:15:05.630Z,100712
2018-03-17T15:17:33.854Z,100717
2018-03-17T15:20:02.068Z,100722
2018-03-17T15:22:30.332Z,100724
2018-03-17T15:24:58.545Z,100730
2018-03-17T15:27:26.761Z,100731
2018-03-17T15:29:54.994Z,100700
2018-03-17T15:32:23.976Z,100736
2018-03-17T15:34:52.211Z,100714
2018-03-17T15:37:20.385Z,100726
2018-03-17T15:39:48.944Z,100732
2018-03-17T15:42:17.172Z,100737
2018-03-17T15:44:45.515Z,100727
2018-03-17T15:47:13.737Z,100742
2018-03-17T15:49:42.171Z,100758
2018-03-17T15:52:10.414Z,100735
2018-03-17T15:54:39.448Z,100728
2018-03-17T15:57:07.664Z,100736
2018-03-17T15:59:35.937Z,100749
2018-03-17T16:02:04.162Z,100745
2018-03-17T16:04:32.397Z,100735
2018-03-17T16:07:01.424Z,100764
2018-03-17T16:09:29.769Z,100743
2018-03-17T16:11:58.745Z,100764
2018-03-17T16:14:27.324Z,100763
2018-03-17T16:16:55.546Z,100747
2018-03-17T16:19:23.730Z,100750
2018-03-17T16:21:52.022Z,100740
2018-03-17T16:24:20.212Z,100746
2018-03-17T16:26:48.496Z,100749
2018-03-17T16:29:16.726Z,100743
2018-03-17T16:31:44.962Z,100756
2018-03-17T16:34:13.970Z,100755
2018-03-17T16:36:42.221Z,100805
2018-03-17T16:39:10.468Z,100764
2018-03-17T16:41:38.633Z,100756
2018-03-17T16:44:07.005Z,100772
2018-03-17T16:46:35.222Z,100771
2018-03-17T16:49:03.600Z,100773
2018-03-17T16:51:31.785Z,100797
2018-03-17T16:54:00.855Z,100784
2018-03-17T16:56:29.096Z,100803
2018-03-17T16:58:57.312Z,100789
2018-03-17T17:01:25.544Z,100775
2018-03-17T17:03:53.865Z,100784
2018-03-17T17:06:22.151Z,100797
2018-03-17T17:08:51.272Z,100819
2018-03-17T17:11:20.375Z,100793
2018-03-17T17:13:48.643Z,100806
2018-03-17T17:16:16.857Z,100826
2018-03-17T17:18:45.077Z,100823
2018-03-17T17:21:13.272Z,100814
2018-03-17T17:23:41.469Z,100808
2018-03-17T17:26:09.688Z,100827
2018-03-17T17:28:38.047Z,100818
2018-03-17T17:31:06.344Z,100817
2018-03-17T17:33:34.553Z,100856
2018-03-17T17:36:02.906Z,100836
2018-03-17T17:38:31.096Z,100833
2018-03-17T17:40:59.339Z,100846
2018-03-17T17:43:28.283Z,100858
2018-03-17T17:45:56.634Z,100857
2018-03-17T17:48:24.752Z,100866
2018-03-17T17:50:52.999Z,100863
2018-03-17T17:53:21.345Z,100865
2018-03-17T17:55:49.556Z,100860
2018-03-17T17:58:17.850Z,100878
2018-03-17T18:00:46.075Z,100869
2018-03-17T18:03:14.300Z,100867
2018-03-17T18:05:42.603Z,100878
2018-03-17T18:08:10.939Z,100880
2018-03-17T18:10:39.265Z,100863
2018-03-17T18:13:07.514Z,100871
2018-03-17T18:15:35.933Z,100876
2018-03-17T18:18:04.152Z,100862
2018-03-17T18:20:32.600Z,100870
2018-03-17T18:23:00.848Z,100884
2018-03-17T18:25:29.058Z,100883
2018-03-17T18:27:57.360Z,100883
2018-03-17T18:30:25.629Z,100876
2018-03-17T18:32:54.673Z,100885
2018-03-17T18:35:22.853Z,100894
2018-03-17T18:37:51.116Z,100883
2018-03-17T18:40:19.481Z,100875
2018-03-17T18:42:48.506Z,100894
2018-03-17T18:45:16.759Z,100896
2018-03-17T18:47:44.985Z,100885
2018-03-17T18:50:13.188Z,100890
2018-03-17T18:52:42.183Z,100892
2018-03-17T18:55:11.142Z,100892
2018-03-17T18:57:39.351Z,100884
2018-03-17T19:00:07.520Z,100894
2018-03-17T19:02:35.722Z,100901
2018-03-17T19:05:03.928Z,100898
2018-03-17T19:07:32.120Z,100895
2018-03-17T19:10:00.378Z,100898
2018-03-17T19:12:28.572Z,100899
2018-03-17T19:14:56.868Z,100887
2018-03-17T19:17:25.095Z,100902
2018-03-17T19:19:53.312Z,100907
2018-03-17T19:22:22.306Z,100913
2018-03-17T19:24:51.340Z,100915
2018-03-17T19:27:19.566Z,100902
2018-03-17T19:29:47.799Z,100919
2018-03-17T19:32:16.023Z,100931
2018-03-17T19:34:45.049Z,100918
2018-03-17T19:37:13.263Z,100918
2018-03-17T19:39:41.494Z,100916
2018-03-17T19:42:09.694Z,100927
2018-03-17T19:44:37.892Z,100915
2018-03-17T19:47:06.088Z,100922
2018-03-17T19:49:36.074Z,100920
2018-03-17T19:52:04.431Z,100913
2018-03-17T19:54:32.619Z,100925
2018-03-17T19:57:00.847Z,100926
2018-03-17T19:59:29.050Z,100952
2018-03-17T20:01:57.390Z,100918
2018-03-17T20:04:26.378Z,100935
2018-03-17T20:06:54.615Z,100922
2018-03-17T20:09:22.880Z,100926
2018-03-17T20:11:51.096Z,100940
2018-03-17T20:14:20.175Z,100941
2018-03-17T20:16:49.142Z,100936
2018-03-17T20:19:18.158Z,100944
2018-03-17T20:21:46.349Z,100928
2018-03-17T20:24:15.318Z,100931
2018-03-17T20:26:43.607Z,100930
2018-03-17T20:29:11.924Z,100919
2018-03-17T20:31:40.158Z,100937
2018-03-17T20:34:09.112Z,100941
2018-03-17T20:36:37.316Z,100930
2018-03-17T20:39:05.534Z,100948
2018-03-17T20:41:33.747Z,100941
2018-03-17T20:44:01.965Z,100941
2018-03-17T20:46:30.187Z,100949
2018-03-17T20:48:58.445Z,100948
2018-03-17T20:51:26.699Z,100945
2018-03-17T20:53:54.899Z,100948
2018-03-17T20:56:23.079Z,100958
2018-03-17T20:58:51.285Z,100959
2018-03-17T21:01:19.490Z,100947
2018-03-17T21:03:47.736Z,100949
2018-03-17T21:06:16.723Z,100948
2018-03-17T21:08:44.958Z,100940
2018-03-17T21:11:13.139Z,100963
2018-03-17T21:13:41.372Z,100964
2018-03-17T21:16:09.693Z,100978
2018-03-17T21:18:37.873Z,100972
2018-03-17T21:21:06.082Z,100965
2018-03-17T21:23:34.264Z,100969
2018-03-17T21:26:02.541Z,100965
2018-03-17T21:28:31.600Z,100974
2018-03-17T21:30:59.895Z,100977
2018-03-17T21:33:28.223Z,100970
2018-03-17T21:35:56.470Z,100977
2018-03-17T21:38:24.707Z,100970
2018-03-17T21:40:52.960Z,100969
2018-03-17T21:43:21.118Z,100955
2018-03-17T21:45:49.308Z,100976
2018-03-17T21:48:17.683Z,100985
2018-03-17T21:50:45.860Z,100960
2018-03-17T21:53:14.125Z,100978
2018-03-17T21:55:43.183Z,100967
2018-03-17T21:58:11.404Z,100980
2018-03-17T22:00:39.736Z,100977
2018-03-17T22:03:08.005Z,100981
2018-03-17T22:05:36.255Z,100985
2018-03-17T22:08:05.224Z,100970
2018-03-17T22:10:33.397Z,100973
2018-03-17T22:13:01.590Z,100977
2018-03-17T22:15:29.806Z,100973
2018-03-17T22:17:58.060Z,100977
2018-03-17T22:20:27.056Z,100967
2018-03-17T22:22:55.296Z,100972
2018-03-17T22:25:28.241Z,100985
2018-03-17T22:27:56.478Z,100985
2018-03-17T22:30:24.712Z,100975
2018-03-17T22:32:52.998Z,100983
2018-03-17T22:35:21.223Z,100987
2018-03-17T22:37:49.499Z,100990
2018-03-17T22:40:17.704Z,100988
2018-03-17T22:42:46.014Z,100992
2018-03-17T22:45:15.008Z,100990
2018-03-17T22:47:43.988Z,100993
2018-03-17T22:50:12.259Z,100987
2018-03-17T22:52:40.475Z,100988
2018-03-17T22:55:08.948Z,100988
2018-03-17T22:57:38.011Z,101001
2018-03-17T23:00:06.374Z,100999
2018-03-17T23:02:34.639Z,100996
2018-03-17T23:05:02.892Z,101006
2018-03-17T23:07:31.266Z,100993
2018-03-17T23:09:59.539Z,100994
2018-03-17T23:12:27.818Z,101000
2018-03-17T23:14:56.228Z,101003
2018-03-17T23:17:24.479Z,100997
2018-03-17T23:19:52.825Z,101009
2018-03-17T23:22:21.070Z,101008
2018-03-17T23:24:50.038Z,101008
2018-03-17T23:27:19.201Z,101007
2018-03-17T23:29:47.460Z,101014
2018-03-17T23:32:16.497Z,101013
2018-03-17T23:34:44.715Z,101015
2018-03-17T23:37:12.959Z,101012
2018-03-17T23:39:41.222Z,101007
2018-03-17T23:42:09.412Z,101017
2018-03-17T23:44:37.603Z,101011
2018-03-17T23:47:05.799Z,100934
2018-03-17T23:49:34.582Z,101015
2018-03-17T23:52:03.621Z,101010
2018-03-17T23:54:31.866Z,101022
2018-03-17T23:57:00.068Z,101010
2018-03-17T23:59:28.349Z,101018
